sensor_id;sensor_type;location;lat;lon;timestamp;P1;durP1;ratioP1;P2;durP2;ratioP2
51618;SDS011;38518;53.164;5.430;2023-02-07T00:01:24;14.25;;;6.47;;
51618;SDS011;38518;53.164;5.430;2023-02-07T00:03:50;16.23;;;6.72;;
51618;SDS011;38518;53.164;5.430;2023-02-07T00:06:25;15.52;;;7.57;;
51618;SDS011;38518;53.164;5.430;2023-02-07T00:08:53;13.73;;;7.10;;
51618;SDS011;38518;53.164;5.430;2023-02-07T00:11:19;14.85;;;6.68;;
51618;SDS011;38518;53.164;5.430;2023-02-07T00:13:48;15.18;;;7.32;;
51618;SDS011;38518;53.164;5.430;2023-02-07T00:16:16;18.23;;;8.18;;
51618;SDS011;38518;53.164;5.430;2023-02-07T00:18:42;17.08;;;7.28;;
51618;SDS011;38518;53.164;5.430;2023-02-07T00:21:09;22.85;;;10.25;;
51618;SDS011;38518;53.164;5.430;2023-02-07T00:23:37;11.20;;;7.00;;
51618;SDS011;38518;53.164;5.430;2023-02-07T00:26:04;15.55;;;8.02;;
51618;SDS011;38518;53.164;5.430;2023-02-07T00:28:31;15.20;;;7.57;;
51618;SDS011;38518;53.164;5.430;2023-02-07T00:31:01;17.75;;;7.18;;
51618;SDS011;38518;53.164;5.430;2023-02-07T00:33:28;14.02;;;7.40;;
51618;SDS011;38518;53.164;5.430;2023-02-07T00:35:58;15.05;;;7.03;;
51618;SDS011;38518;53.164;5.430;2023-02-07T00:38:25;13.65;;;6.93;;
51618;SDS011;38518;53.164;5.430;2023-02-07T00:40:50;16.42;;;7.20;;
51618;SDS011;38518;53.164;5.430;2023-02-07T00:43:16;9.45;;;7.20;;
51618;SDS011;38518;53.164;5.430;2023-02-07T00:45:42;13.70;;;7.68;;
51618;SDS011;38518;53.164;5.430;2023-02-07T00:48:08;13.80;;;6.82;;
51618;SDS011;38518;53.164;5.430;2023-02-07T00:50:33;20.92;;;11.45;;
51618;SDS011;38518;53.164;5.430;2023-02-07T00:52:59;15.25;;;6.93;;
51618;SDS011;38518;53.164;5.430;2023-02-07T00:55:25;15.07;;;7.47;;
51618;SDS011;38518;53.164;5.430;2023-02-07T00:57:50;11.05;;;6.65;;
51618;SDS011;38518;53.164;5.430;2023-02-07T01:00:16;14.02;;;7.75;;
51618;SDS011;38518;53.164;5.430;2023-02-07T01:02:42;15.60;;;8.75;;
51618;SDS011;38518;53.164;5.430;2023-02-07T01:05:08;10.43;;;6.65;;
51618;SDS011;38518;53.164;5.430;2023-02-07T01:07:33;9.50;;;6.65;;
51618;SDS011;38518;53.164;5.430;2023-02-07T01:09:59;11.75;;;5.85;;
51618;SDS011;38518;53.164;5.430;2023-02-07T01:12:25;11.20;;;6.05;;
51618;SDS011;38518;53.164;5.430;2023-02-07T01:14:50;12.95;;;7.07;;
51618;SDS011;38518;53.164;5.430;2023-02-07T01:17:16;15.77;;;7.60;;
51618;SDS011;38518;53.164;5.430;2023-02-07T01:19:42;12.75;;;7.20;;
51618;SDS011;38518;53.164;5.430;2023-02-07T01:22:07;11.70;;;7.20;;
51618;SDS011;38518;53.164;5.430;2023-02-07T01:24:33;7.25;;;5.53;;
51618;SDS011;38518;53.164;5.430;2023-02-07T01:26:59;14.63;;;7.85;;
51618;SDS011;38518;53.164;5.430;2023-02-07T01:29:25;8.57;;;6.20;;
51618;SDS011;38518;53.164;5.430;2023-02-07T01:31:51;9.75;;;6.50;;
51618;SDS011;38518;53.164;5.430;2023-02-07T01:34:17;11.75;;;6.70;;
51618;SDS011;38518;53.164;5.430;2023-02-07T01:36:43;10.90;;;6.47;;
51618;SDS011;38518;53.164;5.430;2023-02-07T01:39:09;9.70;;;7.05;;
51618;SDS011;38518;53.164;5.430;2023-02-07T01:41:35;11.68;;;6.75;;
51618;SDS011;38518;53.164;5.430;2023-02-07T01:46:54;11.73;;;6.60;;
51618;SDS011;38518;53.164;5.430;2023-02-07T01:49:21;12.43;;;6.97;;
51618;SDS011;38518;53.164;5.430;2023-02-07T01:51:51;11.38;;;7.30;;
51618;SDS011;38518;53.164;5.430;2023-02-07T01:54:20;15.88;;;11.63;;
51618;SDS011;38518;53.164;5.430;2023-02-07T01:56:51;11.35;;;7.97;;
51618;SDS011;38518;53.164;5.430;2023-02-07T01:59:22;14.77;;;8.05;;
51618;SDS011;38518;53.164;5.430;2023-02-07T02:01:49;14.88;;;8.50;;
51618;SDS011;38518;53.164;5.430;2023-02-07T02:04:15;13.82;;;8.00;;
51618;SDS011;38518;53.164;5.430;2023-02-07T02:06:41;11.65;;;7.25;;
51618;SDS011;38518;53.164;5.430;2023-02-07T02:09:12;10.93;;;7.68;;
51618;SDS011;38518;53.164;5.430;2023-02-07T02:11:44;15.70;;;7.82;;
51618;SDS011;38518;53.164;5.430;2023-02-07T02:14:34;11.98;;;7.45;;
51618;SDS011;38518;53.164;5.430;2023-02-07T02:27:30;13.52;;;7.78;;
51618;SDS011;38518;53.164;5.430;2023-02-07T02:33:23;14.55;;;7.65;;
51618;SDS011;38518;53.164;5.430;2023-02-07T02:41:00;13.70;;;7.95;;
51618;SDS011;38518;53.164;5.430;2023-02-07T02:46:11;12.60;;;8.30;;
51618;SDS011;38518;53.164;5.430;2023-02-07T02:48:46;12.48;;;8.45;;
51618;SDS011;38518;53.164;5.430;2023-02-07T02:51:13;12.32;;;7.70;;
51618;SDS011;38518;53.164;5.430;2023-02-07T02:53:39;11.80;;;7.65;;
51618;SDS011;38518;53.164;5.430;2023-02-07T02:58:57;14.07;;;8.40;;
51618;SDS011;38518;53.164;5.430;2023-02-07T03:01:49;13.63;;;8.30;;
51618;SDS011;38518;53.164;5.430;2023-02-07T03:15:21;25.58;;;10.38;;
51618;SDS011;38518;53.164;5.430;2023-02-07T03:18:09;25.38;;;9.77;;
51618;SDS011;38518;53.164;5.430;2023-02-07T03:23:08;23.85;;;10.90;;
51618;SDS011;38518;53.164;5.430;2023-02-07T03:25:36;29.52;;;11.38;;
51618;SDS011;38518;53.164;5.430;2023-02-07T03:28:05;26.38;;;11.02;;
51618;SDS011;38518;53.164;5.430;2023-02-07T03:30:34;26.70;;;11.68;;
51618;SDS011;38518;53.164;5.430;2023-02-07T03:33:04;22.08;;;11.55;;
51618;SDS011;38518;53.164;5.430;2023-02-07T03:35:48;23.67;;;11.93;;
51618;SDS011;38518;53.164;5.430;2023-02-07T03:38:21;29.48;;;12.73;;
51618;SDS011;38518;53.164;5.430;2023-02-07T03:40:50;33.30;;;13.65;;
51618;SDS011;38518;53.164;5.430;2023-02-07T03:45:53;29.85;;;13.13;;
51618;SDS011;38518;53.164;5.430;2023-02-07T03:48:20;25.80;;;13.27;;
51618;SDS011;38518;53.164;5.430;2023-02-07T03:50:46;29.02;;;13.23;;
51618;SDS011;38518;53.164;5.430;2023-02-07T03:53:14;34.90;;;13.80;;
51618;SDS011;38518;53.164;5.430;2023-02-07T03:55:39;29.20;;;13.10;;
51618;SDS011;38518;53.164;5.430;2023-02-07T03:58:05;28.60;;;14.32;;
51618;SDS011;38518;53.164;5.430;2023-02-07T04:00:32;26.92;;;12.52;;
51618;SDS011;38518;53.164;5.430;2023-02-07T04:02:58;37.55;;;15.40;;
51618;SDS011;38518;53.164;5.430;2023-02-07T04:05:24;29.80;;;13.65;;
51618;SDS011;38518;53.164;5.430;2023-02-07T04:07:50;37.85;;;14.20;;
51618;SDS011;38518;53.164;5.430;2023-02-07T04:10:16;31.63;;;14.60;;
51618;SDS011;38518;53.164;5.430;2023-02-07T04:12:42;35.55;;;13.73;;
51618;SDS011;38518;53.164;5.430;2023-02-07T04:15:08;34.47;;;14.82;;
51618;SDS011;38518;53.164;5.430;2023-02-07T04:17:34;37.03;;;16.23;;
51618;SDS011;38518;53.164;5.430;2023-02-07T04:20:00;34.47;;;14.77;;
51618;SDS011;38518;53.164;5.430;2023-02-07T04:22:26;39.28;;;16.67;;
51618;SDS011;38518;53.164;5.430;2023-02-07T04:24:52;34.38;;;15.52;;
51618;SDS011;38518;53.164;5.430;2023-02-07T04:27:18;40.88;;;16.92;;
51618;SDS011;38518;53.164;5.430;2023-02-07T04:29:44;45.03;;;16.75;;
51618;SDS011;38518;53.164;5.430;2023-02-07T04:32:09;37.15;;;17.15;;
51618;SDS011;38518;53.164;5.430;2023-02-07T04:34:35;40.72;;;16.63;;
51618;SDS011;38518;53.164;5.430;2023-02-07T04:37:01;32.58;;;15.38;;
51618;SDS011;38518;53.164;5.430;2023-02-07T04:39:27;38.42;;;16.40;;
51618;SDS011;38518;53.164;5.430;2023-02-07T04:41:52;40.97;;;17.27;;
51618;SDS011;38518;53.164;5.430;2023-02-07T04:44:18;39.38;;;16.38;;
51618;SDS011;38518;53.164;5.430;2023-02-07T04:46:44;38.95;;;16.75;;
51618;SDS011;38518;53.164;5.430;2023-02-07T04:49:10;39.53;;;17.10;;
51618;SDS011;38518;53.164;5.430;2023-02-07T04:51:35;40.70;;;19.55;;
51618;SDS011;38518;53.164;5.430;2023-02-07T04:54:01;49.17;;;19.50;;
51618;SDS011;38518;53.164;5.430;2023-02-07T04:56:27;48.95;;;19.92;;
51618;SDS011;38518;53.164;5.430;2023-02-07T04:58:53;50.15;;;20.20;;
51618;SDS011;38518;53.164;5.430;2023-02-07T05:01:18;51.72;;;22.50;;
51618;SDS011;38518;53.164;5.430;2023-02-07T05:03:44;50.75;;;21.70;;
51618;SDS011;38518;53.164;5.430;2023-02-07T05:06:10;45.90;;;20.92;;
51618;SDS011;38518;53.164;5.430;2023-02-07T05:08:36;50.67;;;21.30;;
51618;SDS011;38518;53.164;5.430;2023-02-07T05:11:02;53.03;;;22.40;;
51618;SDS011;38518;53.164;5.430;2023-02-07T05:13:28;59.70;;;23.80;;
51618;SDS011;38518;53.164;5.430;2023-02-07T05:15:54;52.20;;;20.88;;
51618;SDS011;38518;53.164;5.430;2023-02-07T05:18:20;49.35;;;22.25;;
51618;SDS011;38518;53.164;5.430;2023-02-07T05:20:46;52.10;;;22.70;;
51618;SDS011;38518;53.164;5.430;2023-02-07T05:23:12;61.28;;;23.35;;
51618;SDS011;38518;53.164;5.430;2023-02-07T05:25:40;56.45;;;23.20;;
51618;SDS011;38518;53.164;5.430;2023-02-07T05:28:06;51.47;;;24.02;;
51618;SDS011;38518;53.164;5.430;2023-02-07T05:30:32;53.65;;;23.77;;
51618;SDS011;38518;53.164;5.430;2023-02-07T05:32:57;64.85;;;26.38;;
51618;SDS011;38518;53.164;5.430;2023-02-07T05:37:59;54.75;;;21.85;;
51618;SDS011;38518;53.164;5.430;2023-02-07T05:40:26;50.05;;;22.45;;
51618;SDS011;38518;53.164;5.430;2023-02-07T05:42:52;58.65;;;23.73;;
51618;SDS011;38518;53.164;5.430;2023-02-07T05:45:19;55.05;;;23.80;;
51618;SDS011;38518;53.164;5.430;2023-02-07T05:47:45;64.50;;;26.13;;
51618;SDS011;38518;53.164;5.430;2023-02-07T05:50:11;59.80;;;25.48;;
51618;SDS011;38518;53.164;5.430;2023-02-07T05:52:37;64.57;;;25.63;;
51618;SDS011;38518;53.164;5.430;2023-02-07T05:55:03;61.70;;;24.10;;
51618;SDS011;38518;53.164;5.430;2023-02-07T05:57:29;64.45;;;25.40;;
51618;SDS011;38518;53.164;5.430;2023-02-07T05:59:55;72.25;;;27.50;;
51618;SDS011;38518;53.164;5.430;2023-02-07T06:02:21;83.90;;;26.80;;
51618;SDS011;38518;53.164;5.430;2023-02-07T06:04:46;145.45;;;31.27;;
51618;SDS011;38518;53.164;5.430;2023-02-07T06:07:12;281.77;;;36.85;;
51618;SDS011;38518;53.164;5.430;2023-02-07T06:09:38;192.68;;;32.85;;
51618;SDS011;38518;53.164;5.430;2023-02-07T06:12:04;364.73;;;51.75;;
51618;SDS011;38518;53.164;5.430;2023-02-07T06:14:30;281.73;;;36.75;;
51618;SDS011;38518;53.164;5.430;2023-02-07T06:16:55;280.60;;;37.63;;
51618;SDS011;38518;53.164;5.430;2023-02-07T06:19:21;194.02;;;32.92;;
51618;SDS011;38518;53.164;5.430;2023-02-07T06:21:47;100.25;;;29.05;;
51618;SDS011;38518;53.164;5.430;2023-02-07T06:24:13;69.80;;;27.45;;
51618;SDS011;38518;53.164;5.430;2023-02-07T06:26:39;58.53;;;26.10;;
51618;SDS011;38518;53.164;5.430;2023-02-07T06:29:05;62.33;;;27.10;;
51618;SDS011;38518;53.164;5.430;2023-02-07T06:31:31;54.65;;;25.05;;
51618;SDS011;38518;53.164;5.430;2023-02-07T06:33:57;59.17;;;24.48;;
51618;SDS011;38518;53.164;5.430;2023-02-07T06:36:22;59.05;;;24.50;;
51618;SDS011;38518;53.164;5.430;2023-02-07T06:38:48;50.35;;;24.92;;
51618;SDS011;38518;53.164;5.430;2023-02-07T06:41:17;56.33;;;24.95;;
51618;SDS011;38518;53.164;5.430;2023-02-07T06:43:43;48.90;;;25.08;;
51618;SDS011;38518;53.164;5.430;2023-02-07T06:46:08;54.65;;;24.42;;
51618;SDS011;38518;53.164;5.430;2023-02-07T06:48:34;51.83;;;25.25;;
51618;SDS011;38518;53.164;5.430;2023-02-07T06:51:00;55.17;;;24.63;;
51618;SDS011;38518;53.164;5.430;2023-02-07T06:53:25;51.92;;;24.13;;
51618;SDS011;38518;53.164;5.430;2023-02-07T06:55:53;55.53;;;25.63;;
51618;SDS011;38518;53.164;5.430;2023-02-07T06:58:19;49.22;;;25.05;;
51618;SDS011;38518;53.164;5.430;2023-02-07T07:00:47;47.15;;;22.52;;
51618;SDS011;38518;53.164;5.430;2023-02-07T07:03:14;50.67;;;22.40;;
51618;SDS011;38518;53.164;5.430;2023-02-07T07:05:40;52.28;;;22.63;;
51618;SDS011;38518;53.164;5.430;2023-02-07T07:08:07;47.00;;;21.38;;
51618;SDS011;38518;53.164;5.430;2023-02-07T07:10:33;47.83;;;21.45;;
51618;SDS011;38518;53.164;5.430;2023-02-07T07:12:59;48.85;;;22.17;;
51618;SDS011;38518;53.164;5.430;2023-02-07T07:15:25;41.05;;;21.27;;
51618;SDS011;38518;53.164;5.430;2023-02-07T07:17:51;45.58;;;23.45;;
51618;SDS011;38518;53.164;5.430;2023-02-07T07:20:17;46.95;;;22.02;;
51618;SDS011;38518;53.164;5.430;2023-02-07T07:22:43;45.60;;;22.85;;
51618;SDS011;38518;53.164;5.430;2023-02-07T07:25:09;40.95;;;22.00;;
51618;SDS011;38518;53.164;5.430;2023-02-07T07:27:35;44.53;;;21.25;;
51618;SDS011;38518;53.164;5.430;2023-02-07T07:30:01;50.45;;;22.63;;
51618;SDS011;38518;53.164;5.430;2023-02-07T07:32:27;47.70;;;22.17;;
51618;SDS011;38518;53.164;5.430;2023-02-07T07:34:53;45.55;;;22.95;;
51618;SDS011;38518;53.164;5.430;2023-02-07T07:37:19;49.00;;;23.35;;
51618;SDS011;38518;53.164;5.430;2023-02-07T07:39:45;55.35;;;25.55;;
51618;SDS011;38518;53.164;5.430;2023-02-07T07:42:11;52.03;;;25.25;;
51618;SDS011;38518;53.164;5.430;2023-02-07T07:44:36;39.40;;;23.15;;
51618;SDS011;38518;53.164;5.430;2023-02-07T07:47:02;43.15;;;22.30;;
51618;SDS011;38518;53.164;5.430;2023-02-07T07:49:28;46.63;;;22.30;;
51618;SDS011;38518;53.164;5.430;2023-02-07T07:51:54;36.83;;;19.67;;
51618;SDS011;38518;53.164;5.430;2023-02-07T07:54:22;52.92;;;23.95;;
51618;SDS011;38518;53.164;5.430;2023-02-07T07:56:48;41.38;;;21.13;;
51618;SDS011;38518;53.164;5.430;2023-02-07T07:59:14;39.78;;;21.52;;
51618;SDS011;38518;53.164;5.430;2023-02-07T08:01:40;42.50;;;22.05;;
51618;SDS011;38518;53.164;5.430;2023-02-07T08:04:06;45.92;;;22.55;;
51618;SDS011;38518;53.164;5.430;2023-02-07T08:06:32;36.78;;;21.33;;
51618;SDS011;38518;53.164;5.430;2023-02-07T08:08:58;34.72;;;20.73;;
51618;SDS011;38518;53.164;5.430;2023-02-07T08:11:23;39.60;;;23.17;;
51618;SDS011;38518;53.164;5.430;2023-02-07T08:13:49;32.40;;;20.95;;
51618;SDS011;38518;53.164;5.430;2023-02-07T08:16:15;32.38;;;20.02;;
51618;SDS011;38518;53.164;5.430;2023-02-07T08:18:41;32.58;;;21.60;;
51618;SDS011;38518;53.164;5.430;2023-02-07T08:21:08;38.60;;;22.13;;
51618;SDS011;38518;53.164;5.430;2023-02-07T08:23:34;32.00;;;19.77;;
51618;SDS011;38518;53.164;5.430;2023-02-07T08:26:00;30.70;;;18.73;;
51618;SDS011;38518;53.164;5.430;2023-02-07T08:28:26;32.50;;;20.33;;
51618;SDS011;38518;53.164;5.430;2023-02-07T08:30:53;29.63;;;19.83;;
51618;SDS011;38518;53.164;5.430;2023-02-07T08:33:19;29.65;;;20.00;;
51618;SDS011;38518;53.164;5.430;2023-02-07T08:35:44;27.77;;;18.42;;
51618;SDS011;38518;53.164;5.430;2023-02-07T08:38:13;27.45;;;18.10;;
51618;SDS011;38518;53.164;5.430;2023-02-07T08:40:38;27.27;;;21.27;;
51618;SDS011;38518;53.164;5.430;2023-02-07T08:43:04;28.95;;;17.45;;
51618;SDS011;38518;53.164;5.430;2023-02-07T08:45:36;23.40;;;15.32;;
51618;SDS011;38518;53.164;5.430;2023-02-07T08:48:05;29.33;;;19.15;;
51618;SDS011;38518;53.164;5.430;2023-02-07T08:50:32;29.25;;;18.48;;
51618;SDS011;38518;53.164;5.430;2023-02-07T08:52:58;25.20;;;17.20;;
51618;SDS011;38518;53.164;5.430;2023-02-07T08:55:24;26.55;;;17.27;;
51618;SDS011;38518;53.164;5.430;2023-02-07T08:57:49;23.75;;;17.08;;
51618;SDS011;38518;53.164;5.430;2023-02-07T09:00:15;26.05;;;17.60;;
51618;SDS011;38518;53.164;5.430;2023-02-07T09:02:41;29.05;;;22.10;;
51618;SDS011;38518;53.164;5.430;2023-02-07T09:05:08;28.95;;;20.92;;
51618;SDS011;38518;53.164;5.430;2023-02-07T09:07:37;28.52;;;17.23;;
51618;SDS011;38518;53.164;5.430;2023-02-07T09:10:04;26.25;;;17.38;;
51618;SDS011;38518;53.164;5.430;2023-02-07T09:12:31;25.30;;;18.58;;
51618;SDS011;38518;53.164;5.430;2023-02-07T09:15:00;26.45;;;20.42;;
51618;SDS011;38518;53.164;5.430;2023-02-07T09:17:26;26.10;;;21.17;;
51618;SDS011;38518;53.164;5.430;2023-02-07T09:19:52;27.30;;;18.02;;
51618;SDS011;38518;53.164;5.430;2023-02-07T09:22:18;24.63;;;20.95;;
51618;SDS011;38518;53.164;5.430;2023-02-07T09:24:43;25.10;;;17.83;;
51618;SDS011;38518;53.164;5.430;2023-02-07T09:27:09;26.92;;;20.60;;
51618;SDS011;38518;53.164;5.430;2023-02-07T09:29:35;29.00;;;18.58;;
51618;SDS011;38518;53.164;5.430;2023-02-07T09:32:01;26.38;;;18.00;;
51618;SDS011;38518;53.164;5.430;2023-02-07T09:34:27;26.50;;;17.52;;
51618;SDS011;38518;53.164;5.430;2023-02-07T09:36:53;25.75;;;20.08;;
51618;SDS011;38518;53.164;5.430;2023-02-07T09:39:19;25.88;;;17.77;;
51618;SDS011;38518;53.164;5.430;2023-02-07T09:47:02;26.30;;;21.42;;
51618;SDS011;38518;53.164;5.430;2023-02-07T09:52:13;23.98;;;17.27;;
51618;SDS011;38518;53.164;5.430;2023-02-07T09:54:44;23.13;;;18.80;;
51618;SDS011;38518;53.164;5.430;2023-02-07T09:57:18;27.35;;;20.10;;
51618;SDS011;38518;53.164;5.430;2023-02-07T10:02:44;24.90;;;19.67;;
51618;SDS011;38518;53.164;5.430;2023-02-07T10:05:16;22.98;;;19.45;;
51618;SDS011;38518;53.164;5.430;2023-02-07T10:07:46;26.45;;;18.17;;
51618;SDS011;38518;53.164;5.430;2023-02-07T10:10:14;25.10;;;19.77;;
51618;SDS011;38518;53.164;5.430;2023-02-07T10:18:22;22.38;;;18.02;;
51618;SDS011;38518;53.164;5.430;2023-02-07T10:26:53;21.98;;;17.88;;
51618;SDS011;38518;53.164;5.430;2023-02-07T10:32:36;22.17;;;18.15;;
51618;SDS011;38518;53.164;5.430;2023-02-07T10:35:13;23.35;;;18.15;;
51618;SDS011;38518;53.164;5.430;2023-02-07T10:37:43;20.50;;;16.90;;
51618;SDS011;38518;53.164;5.430;2023-02-07T10:43:26;21.10;;;16.88;;
51618;SDS011;38518;53.164;5.430;2023-02-07T10:46:01;21.00;;;17.55;;
51618;SDS011;38518;53.164;5.430;2023-02-07T10:48:30;20.70;;;17.38;;
51618;SDS011;38518;53.164;5.430;2023-02-07T10:50:58;18.40;;;16.35;;
51618;SDS011;38518;53.164;5.430;2023-02-07T10:56:19;20.75;;;16.10;;
51618;SDS011;38518;53.164;5.430;2023-02-07T10:58:48;21.70;;;17.73;;
51618;SDS011;38518;53.164;5.430;2023-02-07T11:01:20;20.27;;;16.67;;
51618;SDS011;38518;53.164;5.430;2023-02-07T11:03:48;21.77;;;16.95;;
51618;SDS011;38518;53.164;5.430;2023-02-07T11:06:15;20.02;;;16.88;;
51618;SDS011;38518;53.164;5.430;2023-02-07T11:09:09;22.58;;;16.27;;
51618;SDS011;38518;53.164;5.430;2023-02-07T11:11:41;19.50;;;16.60;;
51618;SDS011;38518;53.164;5.430;2023-02-07T11:14:15;19.17;;;16.27;;
51618;SDS011;38518;53.164;5.430;2023-02-07T11:16:45;18.05;;;15.63;;
51618;SDS011;38518;53.164;5.430;2023-02-07T11:19:16;19.10;;;16.40;;
51618;SDS011;38518;53.164;5.430;2023-02-07T11:21:45;21.08;;;17.00;;
51618;SDS011;38518;53.164;5.430;2023-02-07T11:29:33;21.05;;;16.75;;
51618;SDS011;38518;53.164;5.430;2023-02-07T11:32:03;17.52;;;15.68;;
51618;SDS011;38518;53.164;5.430;2023-02-07T11:45:41;18.77;;;15.88;;
51618;SDS011;38518;53.164;5.430;2023-02-07T11:51:05;19.35;;;15.95;;
51618;SDS011;38518;53.164;5.430;2023-02-07T11:59:02;18.80;;;15.60;;
51618;SDS011;38518;53.164;5.430;2023-02-07T12:01:43;21.25;;;16.20;;
51618;SDS011;38518;53.164;5.430;2023-02-07T12:04:15;19.05;;;15.77;;
51618;SDS011;38518;53.164;5.430;2023-02-07T12:06:46;19.08;;;16.13;;
51618;SDS011;38518;53.164;5.430;2023-02-07T12:09:20;21.33;;;17.23;;
51618;SDS011;38518;53.164;5.430;2023-02-07T12:12:01;20.10;;;15.63;;
51618;SDS011;38518;53.164;5.430;2023-02-07T12:14:40;20.42;;;16.80;;
51618;SDS011;38518;53.164;5.430;2023-02-07T12:17:34;19.40;;;16.17;;
51618;SDS011;38518;53.164;5.430;2023-02-07T12:20:18;18.92;;;15.90;;
51618;SDS011;38518;53.164;5.430;2023-02-07T12:22:57;21.48;;;15.90;;
51618;SDS011;38518;53.164;5.430;2023-02-07T12:25:46;20.60;;;15.25;;
51618;SDS011;38518;53.164;5.430;2023-02-07T12:31:25;19.90;;;16.70;;
51618;SDS011;38518;53.164;5.430;2023-02-07T12:34:09;17.63;;;15.60;;
51618;SDS011;38518;53.164;5.430;2023-02-07T12:36:49;23.02;;;17.52;;
51618;SDS011;38518;53.164;5.430;2023-02-07T12:39:29;21.27;;;16.60;;
51618;SDS011;38518;53.164;5.430;2023-02-07T12:44:56;20.35;;;16.30;;
51618;SDS011;38518;53.164;5.430;2023-02-07T12:53:13;20.42;;;16.35;;
51618;SDS011;38518;53.164;5.430;2023-02-07T12:59:12;25.50;;;18.83;;
51618;SDS011;38518;53.164;5.430;2023-02-07T13:04:53;23.63;;;18.73;;
51618;SDS011;38518;53.164;5.430;2023-02-07T13:10:50;23.20;;;19.15;;
51618;SDS011;38518;53.164;5.430;2023-02-07T13:13:42;26.92;;;20.45;;
51618;SDS011;38518;53.164;5.430;2023-02-07T13:24:53;29.02;;;21.27;;
51618;SDS011;38518;53.164;5.430;2023-02-07T13:27:19;26.00;;;21.45;;
51618;SDS011;38518;53.164;5.430;2023-02-07T13:29:48;27.45;;;21.10;;
51618;SDS011;38518;53.164;5.430;2023-02-07T13:32:26;26.98;;;21.00;;
51618;SDS011;38518;53.164;5.430;2023-02-07T13:37:21;30.00;;;21.33;;
51618;SDS011;38518;53.164;5.430;2023-02-07T13:40:00;23.55;;;18.98;;
51618;SDS011;38518;53.164;5.430;2023-02-07T13:45:20;26.17;;;18.98;;
51618;SDS011;38518;53.164;5.430;2023-02-07T13:55:59;26.40;;;19.33;;
51618;SDS011;38518;53.164;5.430;2023-02-07T14:01:18;27.02;;;19.63;;
51618;SDS011;38518;53.164;5.430;2023-02-07T14:04:00;25.92;;;18.48;;
51618;SDS011;38518;53.164;5.430;2023-02-07T14:06:30;24.92;;;18.42;;
51618;SDS011;38518;53.164;5.430;2023-02-07T14:09:17;30.25;;;21.55;;
51618;SDS011;38518;53.164;5.430;2023-02-07T14:11:56;24.58;;;20.17;;
51618;SDS011;38518;53.164;5.430;2023-02-07T14:14:29;28.58;;;21.70;;
51618;SDS011;38518;53.164;5.430;2023-02-07T14:27:39;26.33;;;20.90;;
51618;SDS011;38518;53.164;5.430;2023-02-07T14:30:12;24.08;;;18.73;;
51618;SDS011;38518;53.164;5.430;2023-02-07T14:36:01;21.88;;;17.35;;
51618;SDS011;38518;53.164;5.430;2023-02-07T14:41:35;24.00;;;17.77;;
51618;SDS011;38518;53.164;5.430;2023-02-07T14:44:06;23.58;;;17.50;;
51618;SDS011;38518;53.164;5.430;2023-02-07T14:46:48;19.80;;;16.38;;
51618;SDS011;38518;53.164;5.430;2023-02-07T14:49:18;25.52;;;17.23;;
51618;SDS011;38518;53.164;5.430;2023-02-07T14:52:20;20.02;;;16.00;;
51618;SDS011;38518;53.164;5.430;2023-02-07T14:54:52;22.98;;;16.95;;
51618;SDS011;38518;53.164;5.430;2023-02-07T15:02:56;22.30;;;16.25;;
51618;SDS011;38518;53.164;5.430;2023-02-07T15:10:27;20.10;;;15.70;;
51618;SDS011;38518;53.164;5.430;2023-02-07T15:13:18;19.95;;;15.40;;
51618;SDS011;38518;53.164;5.430;2023-02-07T15:18:49;21.08;;;16.40;;
51618;SDS011;38518;53.164;5.430;2023-02-07T15:21:32;22.33;;;16.13;;
51618;SDS011;38518;53.164;5.430;2023-02-07T15:26:33;22.15;;;15.05;;
51618;SDS011;38518;53.164;5.430;2023-02-07T15:29:02;18.33;;;13.93;;
51618;SDS011;38518;53.164;5.430;2023-02-07T15:31:29;20.10;;;14.13;;
51618;SDS011;38518;53.164;5.430;2023-02-07T15:34:04;17.23;;;13.07;;
51618;SDS011;38518;53.164;5.430;2023-02-07T15:36:37;17.38;;;12.88;;
51618;SDS011;38518;53.164;5.430;2023-02-07T15:39:28;15.73;;;12.18;;
51618;SDS011;38518;53.164;5.430;2023-02-07T15:41:56;17.92;;;12.63;;
51618;SDS011;38518;53.164;5.430;2023-02-07T15:44:28;17.23;;;12.82;;
51618;SDS011;38518;53.164;5.430;2023-02-07T15:46:59;19.60;;;13.27;;
51618;SDS011;38518;53.164;5.430;2023-02-07T15:52:29;17.30;;;12.88;;
51618;SDS011;38518;53.164;5.430;2023-02-07T15:54:58;17.38;;;13.35;;
51618;SDS011;38518;53.164;5.430;2023-02-07T15:57:29;18.40;;;13.25;;
51618;SDS011;38518;53.164;5.430;2023-02-07T16:00:00;19.50;;;11.15;;
51618;SDS011;38518;53.164;5.430;2023-02-07T16:02:32;21.85;;;13.77;;
51618;SDS011;38518;53.164;5.430;2023-02-07T16:05:10;23.55;;;11.50;;
51618;SDS011;38518;53.164;5.430;2023-02-07T16:07:44;18.50;;;13.50;;
51618;SDS011;38518;53.164;5.430;2023-02-07T16:10:30;20.80;;;10.77;;
51618;SDS011;38518;53.164;5.430;2023-02-07T16:13:08;19.23;;;13.05;;
51618;SDS011;38518;53.164;5.430;2023-02-07T16:15:54;24.75;;;14.48;;
51618;SDS011;38518;53.164;5.430;2023-02-07T16:18:44;18.00;;;14.10;;
51618;SDS011;38518;53.164;5.430;2023-02-07T16:21:21;19.75;;;14.25;;
51618;SDS011;38518;53.164;5.430;2023-02-07T16:23:51;19.38;;;11.27;;
51618;SDS011;38518;53.164;5.430;2023-02-07T16:26:22;18.95;;;13.50;;
51618;SDS011;38518;53.164;5.430;2023-02-07T16:28:50;18.27;;;14.00;;
51618;SDS011;38518;53.164;5.430;2023-02-07T16:31:16;17.75;;;13.60;;
51618;SDS011;38518;53.164;5.430;2023-02-07T16:33:41;20.20;;;14.75;;
51618;SDS011;38518;53.164;5.430;2023-02-07T16:36:14;22.33;;;14.70;;
51618;SDS011;38518;53.164;5.430;2023-02-07T16:38:41;20.20;;;14.55;;
51618;SDS011;38518;53.164;5.430;2023-02-07T16:41:11;24.30;;;15.40;;
51618;SDS011;38518;53.164;5.430;2023-02-07T16:43:47;20.05;;;15.07;;
51618;SDS011;38518;53.164;5.430;2023-02-07T16:46:13;21.00;;;15.98;;
51618;SDS011;38518;53.164;5.430;2023-02-07T16:48:39;24.55;;;14.23;;
51618;SDS011;38518;53.164;5.430;2023-02-07T16:51:05;24.45;;;13.68;;
51618;SDS011;38518;53.164;5.430;2023-02-07T16:53:30;23.10;;;17.08;;
51618;SDS011;38518;53.164;5.430;2023-02-07T16:55:56;21.00;;;16.55;;
51618;SDS011;38518;53.164;5.430;2023-02-07T16:58:27;24.83;;;18.88;;
51618;SDS011;38518;53.164;5.430;2023-02-07T17:00:55;24.40;;;17.90;;
51618;SDS011;38518;53.164;5.430;2023-02-07T17:03:21;25.75;;;15.50;;
51618;SDS011;38518;53.164;5.430;2023-02-07T17:05:47;26.33;;;20.20;;
51618;SDS011;38518;53.164;5.430;2023-02-07T17:08:14;24.73;;;17.40;;
51618;SDS011;38518;53.164;5.430;2023-02-07T17:10:48;22.50;;;18.50;;
51618;SDS011;38518;53.164;5.430;2023-02-07T17:13:17;23.20;;;17.88;;
51618;SDS011;38518;53.164;5.430;2023-02-07T17:15:44;24.85;;;19.02;;
51618;SDS011;38518;53.164;5.430;2023-02-07T17:18:11;25.98;;;15.70;;
51618;SDS011;38518;53.164;5.430;2023-02-07T17:20:37;22.63;;;15.13;;
51618;SDS011;38518;53.164;5.430;2023-02-07T17:23:03;21.48;;;16.92;;
51618;SDS011;38518;53.164;5.430;2023-02-07T17:25:29;23.30;;;13.90;;
51618;SDS011;38518;53.164;5.430;2023-02-07T17:27:56;22.55;;;13.98;;
51618;SDS011;38518;53.164;5.430;2023-02-07T17:30:23;25.48;;;14.25;;
51618;SDS011;38518;53.164;5.430;2023-02-07T17:33:06;21.73;;;13.50;;
51618;SDS011;38518;53.164;5.430;2023-02-07T17:35:32;22.90;;;17.17;;
51618;SDS011;38518;53.164;5.430;2023-02-07T17:37:58;22.02;;;17.45;;
51618;SDS011;38518;53.164;5.430;2023-02-07T17:40:32;23.88;;;17.27;;